Time;durP1;ratioP1;P1;durP2;ratioP2;P2;SDS_P1;SDS_P2;PMS_P1;PMS_P2;Temp;Humidity;BMP_temperature;BMP_pressure;BME280_temperature;BME280_humidity;BME280_pressure;Samples;Min_cycle;Max_cycle;Signal;HPM_P1;HPM_P2
2023/10/31 00:01:21;;;;;;;2.67;1.60;;;13.50;99.90;;;;;;5022522;28;20280;-76
2023/10/31 00:03:46;;;;;;;11.73;1.80;;;13.50;99.90;;;;;;4995825;28;20227;-77
2023/10/31 00:06:12;;;;;;;1.80;1.17;;;13.50;99.90;;;;;;4990906;28;20428;-76
2023/10/31 00:08:38;;;;;;;2.60;1.70;;;13.50;99.90;;;;;;4994798;28;20573;-76
2023/10/31 00:11:03;;;;;;;3.83;1.43;;;13.50;99.90;;;;;;4991405;28;20211;-76
2023/10/31 00:13:29;;;;;;;3.17;1.40;;;13.40;99.90;;;;;;4999916;28;20186;-77
2023/10/31 00:15:54;;;;;;;1.90;1.30;;;13.50;99.90;;;;;;5001530;28;20249;-74
2023/10/31 00:18:20;;;;;;;3.33;1.50;;;13.50;99.90;;;;;;4994760;28;20185;-75
2023/10/31 00:20:46;;;;;;;2.33;1.30;;;13.40;99.90;;;;;;4996900;28;20210;-76
2023/10/31 00:23:12;;;;;;;3.20;1.43;;;13.50;99.90;;;;;;5001755;28;20173;-76
2023/10/31 00:25:38;;;;;;;2.93;1.50;;;13.50;99.90;;;;;;4998602;28;20432;-77
2023/10/31 00:28:03;;;;;;;2.90;1.27;;;13.60;99.90;;;;;;5002505;28;20188;-76
2023/10/31 00:30:29;;;;;;;2.43;1.30;;;13.50;99.90;;;;;;4997013;28;20208;-76
2023/10/31 00:32:55;;;;;;;2.10;1.37;;;13.40;99.90;;;;;;5001184;28;20184;-76
2023/10/31 00:35:20;;;;;;;8.10;1.30;;;13.40;99.90;;;;;;5003178;28;20256;-76
2023/10/31 00:37:46;;;;;;;3.90;1.33;;;13.30;99.90;;;;;;4997232;28;20192;-76
2023/10/31 00:40:12;;;;;;;2.93;1.27;;;13.30;99.90;;;;;;4998802;28;20702;-76
2023/10/31 00:42:38;;;;;;;2.90;1.60;;;13.30;99.90;;;;;;5000392;28;20193;-75
2023/10/31 00:45:04;;;;;;;3.20;1.13;;;13.30;99.90;;;;;;5007188;28;20216;-78
2023/10/31 00:47:29;;;;;;;2.23;1.30;;;13.30;99.90;;;;;;5000075;28;20419;-77
2023/10/31 00:49:55;;;;;;;3.83;1.30;;;13.30;99.90;;;;;;4994695;28;20440;-81
2023/10/31 00:52:21;;;;;;;4.87;1.33;;;13.40;99.90;;;;;;4993815;28;20212;-81
2023/10/31 00:54:46;;;;;;;1.90;1.00;;;13.40;99.90;;;;;;4994316;28;20424;-79
2023/10/31 00:57:15;;;;;;;2.73;1.40;;;13.40;99.90;;;;;;4989557;28;20235;-82
2023/10/31 00:59:40;;;;;;;1.90;1.30;;;13.40;99.90;;;;;;4999760;28;20227;-78
2023/10/31 01:02:06;;;;;;;2.57;1.23;;;13.50;99.90;;;;;;4999126;28;20439;-79
2023/10/31 01:04:32;;;;;;;5.53;1.20;;;13.30;99.90;;;;;;5003353;28;20201;-79
2023/10/31 01:06:57;;;;;;;2.10;1.20;;;13.40;99.90;;;;;;5004925;28;20188;-79
2023/10/31 01:09:23;;;;;;;2.60;1.37;;;13.40;99.90;;;;;;4999418;28;20200;-78
2023/10/31 01:11:49;;;;;;;3.97;1.50;;;13.40;99.90;;;;;;4992772;28;20696;-78
2023/10/31 01:14:14;;;;;;;2.73;1.43;;;13.40;99.90;;;;;;4997443;28;20272;-78
2023/10/31 01:16:40;;;;;;;2.00;1.30;;;13.50;99.90;;;;;;5003040;28;20327;-80
2023/10/31 01:19:07;;;;;;;2.40;1.47;;;13.50;99.90;;;;;;4998631;28;21618;-81
2023/10/31 01:21:33;;;;;;;6.10;1.33;;;13.50;99.90;;;;;;4998989;28;20539;-78
2023/10/31 01:23:59;;;;;;;6.33;2.33;;;13.60;99.90;;;;;;4999663;28;20487;-78
2023/10/31 01:26:25;;;;;;;3.30;1.10;;;13.50;99.90;;;;;;4993697;28;20602;-77
2023/10/31 01:28:51;;;;;;;1.80;1.30;;;13.40;99.90;;;;;;4996763;28;20555;-79
2023/10/31 01:31:17;;;;;;;2.20;1.20;;;13.40;99.90;;;;;;4997076;28;20209;-77
2023/10/31 01:33:43;;;;;;;4.80;1.80;;;13.40;99.90;;;;;;5003796;28;20597;-77
2023/10/31 01:36:10;;;;;;;5.73;1.43;;;13.40;99.90;;;;;;4997521;28;20173;-77
2023/10/31 01:38:36;;;;;;;2.50;1.20;;;13.40;99.90;;;;;;5003502;28;20260;-78
2023/10/31 01:41:02;;;;;;;1.80;1.03;;;13.20;99.90;;;;;;5003264;28;20534;-76
2023/10/31 01:43:34;;;;;;;3.20;1.40;;;13.30;99.90;;;;;;4998559;28;20232;-77
2023/10/31 01:46:00;;;;;;;1.80;1.30;;;13.20;99.90;;;;;;5000908;28;20992;-77
2023/10/31 01:48:29;;;;;;;2.17;1.20;;;13.10;99.90;;;;;;5004237;28;20437;-81
2023/10/31 01:50:56;;;;;;;1.93;1.03;;;13.00;99.90;;;;;;5005807;28;20213;-77
2023/10/31 01:53:23;;;;;;;2.47;1.20;;;13.00;99.90;;;;;;5001804;28;20427;-79
2023/10/31 01:55:48;;;;;;;2.90;1.50;;;13.00;99.90;;;;;;5009418;28;20412;-78
2023/10/31 01:58:14;;;;;;;1.93;1.10;;;13.00;99.90;;;;;;4993532;28;20482;-81
2023/10/31 02:00:41;;;;;;;2.80;1.10;;;13.10;99.90;;;;;;5006591;28;20195;-78
2023/10/31 02:03:07;;;;;;;1.90;1.20;;;13.10;99.90;;;;;;5007585;28;20771;-78
2023/10/31 02:05:34;;;;;;;3.50;1.20;;;13.00;99.90;;;;;;5000781;28;20455;-79
2023/10/31 02:08:03;;;;;;;2.60;1.27;;;12.90;99.90;;;;;;5007914;28;20169;-79
2023/10/31 02:10:28;;;;;;;2.57;1.50;;;12.90;99.90;;;;;;5005373;28;20975;-78
2023/10/31 02:12:54;;;;;;;4.43;1.27;;;12.90;99.90;;;;;;5002034;28;20528;-79
2023/10/31 02:15:19;;;;;;;3.50;1.23;;;13.00;99.90;;;;;;4998136;28;20674;-77
2023/10/31 02:17:45;;;;;;;2.30;1.30;;;13.10;99.90;;;;;;4991833;28;20571;-78
2023/10/31 02:20:11;;;;;;;2.83;1.20;;;13.00;99.90;;;;;;5003166;28;20204;-78
2023/10/31 02:22:36;;;;;;;2.07;1.30;;;12.90;99.90;;;;;;5004907;28;21141;-78
2023/10/31 02:25:02;;;;;;;2.00;1.20;;;13.00;99.90;;;;;;5006402;28;20420;-77
2023/10/31 02:27:28;;;;;;;2.97;1.43;;;13.00;99.90;;;;;;5001854;28;20235;-77
2023/10/31 02:29:54;;;;;;;2.07;1.20;;;12.90;99.90;;;;;;4999462;28;20420;-78
2023/10/31 02:32:19;;;;;;;2.07;1.53;;;12.90;99.90;;;;;;4996906;28;20221;-79
2023/10/31 02:34:45;;;;;;;2.23;1.40;;;12.90;99.90;;;;;;4995989;28;20716;-77
2023/10/31 02:37:11;;;;;;;3.30;1.20;;;12.90;99.90;;;;;;5007077;28;20184;-79
2023/10/31 02:39:37;;;;;;;2.90;1.30;;;12.90;99.90;;;;;;4999406;28;20487;-77
2023/10/31 02:42:03;;;;;;;2.13;1.20;;;12.90;99.90;;;;;;5001135;28;20790;-78
2023/10/31 02:44:29;;;;;;;2.43;1.33;;;13.00;99.90;;;;;;4999682;28;20428;-78
2023/10/31 02:46:55;;;;;;;2.00;1.30;;;13.00;99.90;;;;;;4998777;28;21039;-79
2023/10/31 02:49:21;;;;;;;2.83;1.40;;;12.90;99.90;;;;;;4997503;28;20276;-78
2023/10/31 02:51:46;;;;;;;2.20;1.10;;;12.90;99.90;;;;;;4996277;28;20642;-80
2023/10/31 02:54:12;;;;;;;1.80;1.20;;;12.90;99.90;;;;;;4997692;28;20421;-78
2023/10/31 02:56:38;;;;;;;2.00;1.30;;;12.90;99.90;;;;;;5001482;28;20217;-80
2023/10/31 02:59:03;;;;;;;2.77;1.30;;;12.90;99.90;;;;;;5000015;28;20864;-79
2023/10/31 03:01:29;;;;;;;2.70;1.30;;;12.90;99.90;;;;;;4998782;28;20212;-81
2023/10/31 03:03:55;;;;;;;2.90;1.53;;;13.00;99.90;;;;;;5003231;28;20209;-81
2023/10/31 03:06:21;;;;;;;1.90;1.27;;;12.90;99.90;;;;;;5003347;28;20423;-81
2023/10/31 03:08:47;;;;;;;3.23;1.33;;;12.90;99.90;;;;;;5001245;28;20268;-77
2023/10/31 03:11:26;;;;;;;3.17;1.67;;;12.90;99.90;;;;;;4992348;28;20554;-77
2023/10/31 03:13:53;;;;;;;3.13;1.40;;;12.90;99.90;;;;;;5000915;28;20181;-78
2023/10/31 03:16:19;;;;;;;2.70;1.40;;;12.90;99.90;;;;;;4997949;28;20446;-77
2023/10/31 03:18:46;;;;;;;3.50;1.40;;;12.90;99.90;;;;;;5005251;28;20420;-79
2023/10/31 03:21:12;;;;;;;2.33;1.50;;;12.90;99.90;;;;;;5003351;28;20436;-79
2023/10/31 03:23:38;;;;;;;2.30;1.30;;;12.90;99.90;;;;;;5000779;28;20539;-80
2023/10/31 03:26:03;;;;;;;1.80;1.17;;;13.00;99.90;;;;;;5005290;28;20525;-79
2023/10/31 03:28:29;;;;;;;2.23;1.40;;;13.00;99.90;;;;;;4998167;28;20185;-78
2023/10/31 03:30:54;;;;;;;2.87;1.50;;;13.00;99.90;;;;;;5004206;28;20213;-79
2023/10/31 03:33:20;;;;;;;7.70;1.47;;;13.10;99.90;;;;;;5005594;28;20649;-79
2023/10/31 03:35:46;;;;;;;3.20;1.40;;;13.10;99.90;;;;;;4999268;28;20197;-79
2023/10/31 03:38:12;;;;;;;3.80;1.23;;;13.10;99.90;;;;;;5028677;28;20179;-79
2023/10/31 03:40:37;;;;;;;2.37;1.20;;;13.00;99.90;;;;;;5003194;28;20540;-79
2023/10/31 03:43:03;;;;;;;4.43;1.30;;;13.00;99.90;;;;;;5008005;28;20804;-81
2023/10/31 03:45:29;;;;;;;2.63;1.30;;;13.00;99.90;;;;;;5007516;28;20182;-80
2023/10/31 03:47:55;;;;;;;3.30;1.67;;;13.00;99.90;;;;;;5013316;28;20235;-80
2023/10/31 03:50:20;;;;;;;7.50;1.60;;;13.00;99.90;;;;;;4999298;28;20571;-80
2023/10/31 03:52:46;;;;;;;2.53;1.30;;;13.00;99.90;;;;;;5008257;28;20220;-80
2023/10/31 03:55:11;;;;;;;2.60;1.37;;;12.90;99.90;;;;;;5003826;28;20185;-80
2023/10/31 03:57:37;;;;;;;4.70;1.47;;;12.90;99.90;;;;;;5004246;28;20173;-81
2023/10/31 04:00:05;;;;;;;2.10;1.17;;;12.80;99.90;;;;;;4999152;28;20749;-79
2023/10/31 04:02:32;;;;;;;2.17;1.20;;;12.90;99.90;;;;;;5008960;28;20206;-79
2023/10/31 04:04:58;;;;;;;4.43;1.20;;;12.90;99.90;;;;;;5007134;28;20468;-80
2023/10/31 04:07:23;;;;;;;2.10;1.40;;;12.90;99.90;;;;;;5005590;28;20253;-79
2023/10/31 04:09:49;;;;;;;2.20;1.37;;;12.90;99.90;;;;;;5014789;28;20196;-82
2023/10/31 04:12:15;;;;;;;1.80;1.20;;;12.90;99.90;;;;;;5018750;28;20216;-82
2023/10/31 04:14:41;;;;;;;2.00;1.20;;;12.90;99.90;;;;;;5013442;28;20193;-82
2023/10/31 04:17:06;;;;;;;3.70;1.70;;;12.90;99.90;;;;;;5012957;28;20428;-78
2023/10/31 04:19:32;;;;;;;9.10;1.40;;;13.00;99.90;;;;;;5004777;28;20216;-80
2023/10/31 04:21:57;;;;;;;3.03;1.37;;;13.00;99.90;;;;;;5006992;28;20259;-79
2023/10/31 04:24:23;;;;;;;2.33;1.50;;;13.10;99.90;;;;;;5006491;28;20228;-81
2023/10/31 04:26:49;;;;;;;3.07;1.27;;;13.10;99.90;;;;;;4999211;28;20241;-79
2023/10/31 04:29:14;;;;;;;6.60;1.43;;;13.00;99.90;;;;;;5003348;28;20194;-79
2023/10/31 04:31:40;;;;;;;3.03;1.10;;;13.00;99.90;;;;;;5003846;28;20243;-77
2023/10/31 04:34:05;;;;;;;2.27;1.60;;;13.00;99.90;;;;;;4995870;28;20194;-80
2023/10/31 04:36:31;;;;;;;3.47;1.60;;;13.00;99.90;;;;;;5000313;28;20549;-82
2023/10/31 04:38:57;;;;;;;3.63;1.60;;;12.90;99.90;;;;;;5000318;28;20189;-78
2023/10/31 04:41:22;;;;;;;3.37;1.50;;;12.90;99.90;;;;;;5000099;28;20213;-81
2023/10/31 04:43:48;;;;;;;12.87;1.70;;;13.00;99.90;;;;;;4989694;28;20574;-76
2023/10/31 04:46:14;;;;;;;2.13;1.50;;;13.00;99.90;;;;;;5002881;28;20185;-79
2023/10/31 04:48:39;;;;;;;1.90;1.20;;;12.90;99.90;;;;;;4999977;28;20564;-77
2023/10/31 04:51:05;;;;;;;3.30;1.60;;;12.90;99.90;;;;;;4998785;28;20606;-78
2023/10/31 04:53:33;;;;;;;2.23;1.40;;;12.90;99.90;;;;;;5010375;28;20206;-79
2023/10/31 04:55:59;;;;;;;3.30;1.40;;;12.90;99.90;;;;;;5008084;28;20276;-78
2023/10/31 04:58:25;;;;;;;2.77;1.37;;;13.00;99.90;;;;;;4995935;28;21143;-79
2023/10/31 05:00:50;;;;;;;2.70;1.17;;;12.90;99.90;;;;;;4999451;28;20463;-78
2023/10/31 05:03:16;;;;;;;2.77;1.30;;;13.00;99.90;;;;;;4995150;28;20201;-78
2023/10/31 05:05:41;;;;;;;1.83;1.30;;;13.00;99.90;;;;;;4994750;28;21507;-77
2023/10/31 05:08:07;;;;;;;1.90;1.30;;;13.00;99.90;;;;;;4999490;28;20193;-80
2023/10/31 05:10:33;;;;;;;2.10;1.30;;;12.90;99.90;;;;;;4996525;28;20213;-78
2023/10/31 05:13:00;;;;;;;2.37;1.50;;;12.90;99.90;;;;;;4997803;28;20186;-81
2023/10/31 05:15:25;;;;;;;3.20;1.40;;;12.90;99.90;;;;;;5006379;28;20184;-79
2023/10/31 05:17:51;;;;;;;2.43;1.57;;;12.80;99.90;;;;;;4998608;28;20815;-78
2023/10/31 05:20:17;;;;;;;2.00;1.20;;;12.70;99.90;;;;;;4992373;28;20209;-76
2023/10/31 05:22:42;;;;;;;2.67;1.80;;;12.60;99.90;;;;;;4998977;28;20876;-78
2023/10/31 05:25:08;;;;;;;3.10;1.40;;;12.70;99.90;;;;;;4997907;28;20244;-78
2023/10/31 05:27:33;;;;;;;2.83;1.30;;;12.70;99.90;;;;;;5002921;28;20277;-78
2023/10/31 05:29:59;;;;;;;4.60;1.63;;;12.70;99.90;;;;;;4996535;28;20185;-78
2023/10/31 05:32:25;;;;;;;5.20;1.43;;;12.70;99.90;;;;;;4991448;28;20272;-82
2023/10/31 05:34:50;;;;;;;2.67;1.40;;;12.60;99.90;;;;;;5000651;28;20169;-79
2023/10/31 05:37:16;;;;;;;4.27;1.30;;;12.70;99.90;;;;;;5003086;28;20178;-78
2023/10/31 05:39:41;;;;;;;2.97;1.40;;;12.70;99.90;;;;;;5001642;28;20200;-78
2023/10/31 05:42:07;;;;;;;4.23;1.63;;;12.70;99.90;;;;;;4992248;28;20259;-80
2023/10/31 05:44:33;;;;;;;3.30;1.40;;;12.70;99.90;;;;;;4997001;28;20272;-78
2023/10/31 05:46:58;;;;;;;2.07;1.27;;;12.80;99.90;;;;;;5003316;28;20185;-78
2023/10/31 05:49:24;;;;;;;2.73;1.50;;;12.80;99.90;;;;;;5001601;28;20196;-78
2023/10/31 05:51:53;;;;;;;2.83;2.07;;;12.80;99.90;;;;;;5005279;28;20208;-78
2023/10/31 05:54:19;;;;;;;4.10;1.30;;;12.80;99.90;;;;;;4994437;28;20566;-81
2023/10/31 05:56:45;;;;;;;2.37;1.30;;;12.70;99.90;;;;;;5023180;28;20500;-80
2023/10/31 05:59:13;;;;;;;3.50;1.70;;;12.60;99.90;;;;;;4998953;28;20280;-80
2023/10/31 06:01:39;;;;;;;2.30;1.20;;;12.70;99.90;;;;;;4998810;28;20285;-78
2023/10/31 06:04:05;;;;;;;2.67;1.40;;;12.60;99.90;;;;;;5000564;28;20526;-79
2023/10/31 06:06:37;;;;;;;2.93;1.50;;;12.60;99.90;;;;;;4990429;28;20827;-78
2023/10/31 06:09:04;;;;;;;2.20;1.27;;;12.60;99.90;;;;;;4999199;28;20192;-79
2023/10/31 06:11:30;;;;;;;1.90;1.17;;;12.60;99.90;;;;;;5001070;28;21083;-79
2023/10/31 06:13:55;;;;;;;3.10;1.80;;;12.60;99.90;;;;;;5000103;28;20433;-80
2023/10/31 06:16:21;;;;;;;2.27;1.47;;;12.70;99.90;;;;;;4999059;28;20195;-80
2023/10/31 06:18:46;;;;;;;1.87;1.27;;;12.70;99.90;;;;;;5000489;28;20178;-79
2023/10/31 06:21:12;;;;;;;2.23;1.40;;;12.70;99.90;;;;;;4999804;28;20234;-81
2023/10/31 06:23:38;;;;;;;4.87;1.53;;;12.50;99.90;;;;;;4999383;28;20205;-79
2023/10/31 06:26:04;;;;;;;2.63;1.57;;;12.60;99.90;;;;;;5004744;28;20189;-80
2023/10/31 06:28:30;;;;;;;3.17;1.30;;;12.60;99.90;;;;;;5000693;28;20823;-80
2023/10/31 06:30:55;;;;;;;2.20;1.47;;;12.60;99.90;;;;;;4999481;28;20527;-79
2023/10/31 06:33:21;;;;;;;2.43;1.40;;;12.60;99.90;;;;;;4998941;28;20189;-78
2023/10/31 06:35:47;;;;;;;2.73;2.03;;;12.60;99.90;;;;;;4994479;28;20185;-80
2023/10/31 06:38:13;;;;;;;2.30;1.50;;;12.60;99.90;;;;;;4999011;28;20182;-80
2023/10/31 06:40:38;;;;;;;3.70;1.50;;;12.50;99.90;;;;;;4993762;28;20209;-78
2023/10/31 06:43:04;;;;;;;2.47;1.40;;;12.40;99.90;;;;;;4989561;28;20439;-77
2023/10/31 06:45:29;;;;;;;3.30;1.30;;;12.40;99.90;;;;;;4993251;28;20645;-77
2023/10/31 06:47:55;;;;;;;2.57;1.53;;;12.40;99.90;;;;;;4999603;28;20269;-77
2023/10/31 06:50:20;;;;;;;5.30;1.47;;;12.40;99.90;;;;;;5001921;28;20196;-76
2023/10/31 06:52:46;;;;;;;2.90;1.60;;;12.30;99.90;;;;;;5000859;28;20218;-76
2023/10/31 06:55:12;;;;;;;2.93;1.50;;;12.40;99.90;;;;;;4997416;28;20174;-77
2023/10/31 06:57:38;;;;;;;2.40;1.70;;;12.40;99.90;;;;;;5000762;28;20173;-77
2023/10/31 07:00:08;;;;;;;2.47;1.60;;;12.30;99.90;;;;;;4994019;28;20441;-77
2023/10/31 07:02:33;;;;;;;3.70;1.60;;;12.40;99.90;;;;;;5000163;28;21325;-77
2023/10/31 07:04:59;;;;;;;2.33;1.40;;;12.50;99.90;;;;;;4997059;28;20519;-77
2023/10/31 07:07:24;;;;;;;2.33;1.50;;;12.50;99.90;;;;;;5001418;28;20195;-77
2023/10/31 07:09:50;;;;;;;3.23;1.50;;;12.60;99.90;;;;;;5006334;28;20188;-78
2023/10/31 07:12:16;;;;;;;4.20;1.60;;;12.60;99.90;;;;;;5003303;28;20266;-76
2023/10/31 07:14:41;;;;;;;2.90;1.53;;;12.70;99.90;;;;;;5000490;28;20189;-78
2023/10/31 07:17:07;;;;;;;4.80;1.63;;;12.70;99.90;;;;;;4999888;28;20720;-78
2023/10/31 07:19:32;;;;;;;2.80;1.67;;;12.70;99.90;;;;;;4999804;28;20181;-77
2023/10/31 07:21:58;;;;;;;5.10;1.90;;;12.80;99.90;;;;;;5002988;28;20209;-77
2023/10/31 07:24:24;;;;;;;3.90;1.53;;;12.80;99.90;;;;;;4994015;28;20264;-77
2023/10/31 07:26:50;;;;;;;3.60;1.63;;;12.80;99.90;;;;;;4999688;28;20176;-77
2023/10/31 07:29:15;;;;;;;4.57;1.60;;;12.80;99.90;;;;;;4992296;28;20434;-77
2023/10/31 07:31:41;;;;;;;2.97;1.83;;;12.80;99.90;;;;;;4993495;28;20229;-77
2023/10/31 07:34:07;;;;;;;3.53;1.77;;;12.80;99.90;;;;;;4991776;28;20783;-78
2023/10/31 07:36:34;;;;;;;2.40;1.70;;;12.80;99.90;;;;;;4985586;28;20184;-76
2023/10/31 07:39:00;;;;;;;3.70;1.80;;;12.80;99.90;;;;;;4993525;28;20181;-78
2023/10/31 07:41:26;;;;;;;3.10;2.10;;;12.90;99.90;;;;;;4981304;28;20455;-81
2023/10/31 07:43:52;;;;;;;2.93;1.53;;;12.90;99.90;;;;;;4995952;28;20537;-79
2023/10/31 07:46:17;;;;;;;2.73;1.53;;;12.90;99.90;;;;;;4997696;28;20431;-81
2023/10/31 07:48:43;;;;;;;3.27;1.53;;;12.90;99.90;;;;;;4997104;28;20674;-79
2023/10/31 07:51:09;;;;;;;3.70;1.53;;;12.80;99.90;;;;;;4994774;28;20791;-83
2023/10/31 07:53:35;;;;;;;4.20;1.70;;;12.80;99.90;;;;;;4988464;28;20443;-78
2023/10/31 07:56:03;;;;;;;2.87;1.37;;;12.90;99.90;;;;;;5003494;28;20763;-79
2023/10/31 07:58:29;;;;;;;2.80;1.80;;;13.00;99.90;;;;;;4993199;28;20182;-81
2023/10/31 08:00:55;;;;;;;2.50;1.50;;;13.10;99.90;;;;;;4989129;28;20559;-81
2023/10/31 08:03:21;;;;;;;3.20;1.70;;;13.00;99.90;;;;;;5002433;28;20216;-79
2023/10/31 08:05:47;;;;;;;3.17;1.50;;;13.10;99.90;;;;;;4992702;28;20446;-78
2023/10/31 08:08:12;;;;;;;4.13;1.67;;;13.20;99.90;;;;;;4996812;28;20240;-78
2023/10/31 08:10:38;;;;;;;6.20;2.10;;;13.20;99.90;;;;;;4997023;28;20216;-81
2023/10/31 08:13:04;;;;;;;3.80;1.80;;;13.40;99.90;;;;;;5009421;28;20208;-83
2023/10/31 08:15:29;;;;;;;4.20;1.60;;;13.40;99.90;;;;;;5001524;28;20202;-81
2023/10/31 08:17:55;;;;;;;5.30;2.10;;;13.40;99.90;;;;;;5000375;28;20230;-84
2023/10/31 08:20:20;;;;;;;4.53;1.90;;;13.40;99.90;;;;;;5003798;28;20220;-81
2023/10/31 08:22:46;;;;;;;3.53;2.23;;;13.30;99.90;;;;;;5003093;28;20269;-78
2023/10/31 08:25:12;;;;;;;6.23;2.10;;;13.40;99.90;;;;;;5001910;28;20276;-79
2023/10/31 08:27:37;;;;;;;5.63;2.17;;;13.50;99.90;;;;;;4999033;28;20622;-80
2023/10/31 08:30:03;;;;;;;3.70;1.77;;;13.50;99.90;;;;;;5001947;28;20492;-79
2023/10/31 08:32:29;;;;;;;5.10;1.93;;;13.50;99.90;;;;;;4992423;28;20236;-79
2023/10/31 08:34:56;;;;;;;2.93;1.50;;;13.40;99.90;;;;;;5004733;28;20427;-78
2023/10/31 08:37:22;;;;;;;5.70;1.90;;;13.40;99.90;;;;;;5005267;28;20220;-83
2023/10/31 08:39:47;;;;;;;3.40;1.70;;;13.40;99.90;;;;;;5008902;28;20431;-81
2023/10/31 08:42:13;;;;;;;3.27;1.90;;;13.60;99.90;;;;;;5012017;28;20891;-82
2023/10/31 08:44:40;;;;;;;9.03;2.57;;;13.60;99.90;;;;;;5012002;28;20224;-83
2023/10/31 08:47:06;;;;;;;4.13;1.90;;;13.50;99.90;;;;;;5024094;28;20242;-82
2023/10/31 08:49:32;;;;;;;3.30;2.00;;;13.60;99.90;;;;;;5013523;28;20903;-80
2023/10/31 08:51:57;;;;;;;3.80;1.80;;;13.60;99.90;;;;;;4998826;28;20472;-79
2023/10/31 08:54:23;;;;;;;10.33;2.10;;;13.60;99.90;;;;;;5005453;28;20551;-82
2023/10/31 08:56:48;;;;;;;3.40;1.73;;;13.70;99.90;;;;;;5009780;28;20190;-83
2023/10/31 08:59:14;;;;;;;3.90;2.07;;;13.70;99.90;;;;;;5007611;28;20212;-79
2023/10/31 09:01:40;;;;;;;3.47;1.80;;;13.70;99.90;;;;;;5006262;28;20596;-80
2023/10/31 09:04:05;;;;;;;3.70;2.03;;;13.60;99.90;;;;;;5014129;28;20201;-81
2023/10/31 09:06:31;;;;;;;6.40;2.43;;;13.60;99.90;;;;;;5012922;28;20189;-81
2023/10/31 09:08:57;;;;;;;3.40;1.67;;;13.70;99.90;;;;;;5013142;28;20182;-81
2023/10/31 09:11:22;;;;;;;5.80;2.10;;;13.70;99.90;;;;;;5010005;28;20209;-82
2023/10/31 09:13:48;;;;;;;5.00;2.50;;;13.60;99.90;;;;;;5004302;28;20188;-79
2023/10/31 09:16:13;;;;;;;2.43;1.53;;;13.70;99.90;;;;;;5002844;28;20209;-78
2023/10/31 09:18:39;;;;;;;3.43;1.67;;;13.70;99.90;;;;;;5005185;28;20253;-78
2023/10/31 09:21:05;;;;;;;2.90;1.70;;;13.70;99.90;;;;;;5008373;28;20218;-77
2023/10/31 09:23:30;;;;;;;3.43;2.03;;;13.80;99.90;;;;;;4996378;28;20178;-78
2023/10/31 09:25:56;;;;;;;5.63;1.90;;;13.80;99.90;;;;;;4999898;28;20214;-79
2023/10/31 09:28:22;;;;;;;3.33;2.03;;;13.90;99.90;;;;;;5000292;28;20204;-78
2023/10/31 09:30:49;;;;;;;4.77;1.60;;;13.90;99.90;;;;;;4999467;28;20447;-79
2023/10/31 09:33:15;;;;;;;3.60;2.30;;;13.80;99.90;;;;;;5010441;28;20177;-79
2023/10/31 09:35:40;;;;;;;5.40;2.10;;;13.80;99.90;;;;;;5006336;28;20919;-81
2023/10/31 09:38:06;;;;;;;4.20;1.93;;;13.80;99.90;;;;;;5013285;28;20185;-79
2023/10/31 09:40:32;;;;;;;8.03;2.50;;;13.80;99.90;;;;;;5025238;28;20192;-81
2023/10/31 09:42:57;;;;;;;4.60;2.40;;;13.90;99.90;;;;;;5027515;28;20181;-82
2023/10/31 09:45:23;;;;;;;3.20;1.77;;;13.90;99.90;;;;;;5024808;28;20240;-80
2023/10/31 09:47:49;;;;;;;3.40;1.93;;;13.80;99.90;;;;;;5027676;28;20279;-81
2023/10/31 09:50:14;;;;;;;6.07;2.23;;;13.90;99.90;;;;;;5032040;28;20214;-79
2023/10/31 09:52:40;;;;;;;6.07;2.20;;;14.00;99.90;;;;;;5030600;28;20194;-81
2023/10/31 09:55:07;;;;;;;9.17;2.40;;;13.90;99.90;;;;;;5033148;28;20177;-82
2023/10/31 09:57:33;;;;;;;5.73;2.10;;;14.00;99.90;;;;;;5020770;28;20204;-78
2023/10/31 09:59:59;;;;;;;4.00;1.80;;;14.10;99.90;;;;;;5014285;28;20483;-79
2023/10/31 10:02:25;;;;;;;2.60;1.67;;;14.00;99.90;;;;;;5016497;28;20455;-79
2023/10/31 10:04:51;;;;;;;4.60;2.17;;;14.00;99.90;;;;;;5006206;28;20212;-79
2023/10/31 10:07:18;;;;;;;4.10;2.03;;;14.20;99.90;;;;;;5000989;28;20439;-75
2023/10/31 10:09:45;;;;;;;5.33;1.97;;;14.30;99.90;;;;;;4993612;28;20620;-74
2023/10/31 10:12:15;;;;;;;5.30;2.27;;;14.40;99.90;;;;;;4992560;28;20468;-74
2023/10/31 10:14:40;;;;;;;8.80;2.10;;;14.50;99.90;;;;;;4996937;28;20421;-76
2023/10/31 10:17:24;;;;;;;4.23;1.90;;;14.50;99.90;;;;;;4992387;28;20443;-76
2023/10/31 10:20:07;;;;;;;5.70;1.90;;;14.50;99.90;;;;;;4993581;28;20207;-75
2023/10/31 10:22:39;;;;;;;4.13;1.67;;;14.50;99.90;;;;;;4994855;28;20432;-77
2023/10/31 10:25:07;;;;;;;6.53;2.40;;;14.40;99.90;;;;;;4995707;28;21050;-75
2023/10/31 10:27:33;;;;;;;8.40;2.20;;;14.30;99.90;;;;;;5013894;28;20437;-77
2023/10/31 10:29:58;;;;;;;6.33;2.00;;;14.30;99.90;;;;;;4983158;28;20448;-76
2023/10/31 10:32:24;;;;;;;6.87;2.13;;;14.20;99.90;;;;;;4988647;28;20213;-75
2023/10/31 10:34:50;;;;;;;6.57;2.17;;;14.20;99.90;;;;;;4991518;28;21364;-75
2023/10/31 10:37:18;;;;;;;5.17;1.90;;;14.10;99.90;;;;;;5023350;28;20216;-74
2023/10/31 10:39:49;;;;;;;6.10;1.90;;;14.00;99.90;;;;;;4993211;28;20271;-76
2023/10/31 10:42:18;;;;;;;9.30;2.03;;;14.10;99.90;;;;;;4996250;28;21075;-77
2023/10/31 10:44:45;;;;;;;6.53;4.10;;;14.20;99.90;;;;;;4982921;28;20515;-75
2023/10/31 10:47:12;;;;;;;4.63;1.97;;;14.40;99.90;;;;;;4993537;28;20436;-75
2023/10/31 10:49:41;;;;;;;4.43;1.93;;;14.50;99.90;;;;;;4989348;28;20448;-74
2023/10/31 10:52:24;;;;;;;4.73;1.77;;;14.50;99.90;;;;;;4996967;28;20483;-75
2023/10/31 10:54:58;;;;;;;5.07;2.33;;;14.40;99.90;;;;;;4988767;28;20500;-75
2023/10/31 10:57:50;;;;;;;5.23;2.00;;;14.40;99.90;;;;;;4983720;28;20447;-77
2023/10/31 11:00:16;;;;;;;3.30;1.80;;;14.40;99.90;;;;;;4993242;28;20467;-74
2023/10/31 11:02:43;;;;;;;6.90;2.10;;;14.60;99.90;;;;;;4993780;28;20436;-74
2023/10/31 11:05:09;;;;;;;6.47;2.80;;;14.60;99.90;;;;;;4993152;28;20437;-74
2023/10/31 11:07:39;;;;;;;16.63;2.53;;;14.60;99.90;;;;;;5000232;28;21046;-76
2023/10/31 11:10:06;;;;;;;6.10;2.00;;;14.60;99.90;;;;;;4992452;28;20455;-75
2023/10/31 11:12:32;;;;;;;6.63;2.80;;;14.60;99.90;;;;;;4989380;28;20464;-75
2023/10/31 11:15:00;;;;;;;5.80;2.53;;;14.60;99.90;;;;;;4994200;28;20431;-75
2023/10/31 11:17:29;;;;;;;7.87;2.67;;;14.70;99.90;;;;;;5017386;28;20444;-76
2023/10/31 11:19:56;;;;;;;10.33;2.33;;;14.80;99.90;;;;;;4998981;28;20786;-77
2023/10/31 11:22:22;;;;;;;6.40;2.40;;;14.80;99.90;;;;;;4987905;28;20723;-76
2023/10/31 11:24:49;;;;;;;6.47;2.70;;;14.80;99.90;;;;;;4991104;28;20443;-75
2023/10/31 11:27:17;;;;;;;4.67;2.70;;;14.90;99.90;;;;;;4988422;28;20235;-76
2023/10/31 11:29:43;;;;;;;7.93;3.40;;;14.90;99.90;;;;;;4993048;28;20606;-77
2023/10/31 11:32:10;;;;;;;5.43;2.90;;;15.00;99.90;;;;;;4993576;28;20562;-76
2023/10/31 11:34:39;;;;;;;7.30;2.40;;;14.90;99.90;;;;;;4996477;28;20439;-77
2023/10/31 11:37:25;;;;;;;6.20;2.53;;;14.90;99.90;;;;;;4994568;28;20433;-76
2023/10/31 11:40:13;;;;;;;5.63;3.30;;;14.90;99.90;;;;;;4994012;28;21068;-76
2023/10/31 11:42:38;;;;;;;4.93;2.60;;;15.10;99.90;;;;;;4996476;28;20459;-74
2023/10/31 11:45:05;;;;;;;4.37;2.80;;;15.00;99.90;;;;;;5004324;28;20447;-73
2023/10/31 11:47:50;;;;;;;6.77;3.07;;;14.90;99.90;;;;;;5000331;28;20196;-78
2023/10/31 11:50:16;;;;;;;5.20;2.97;;;14.90;99.90;;;;;;5004551;28;20554;-74
2023/10/31 11:52:42;;;;;;;9.90;3.10;;;14.80;99.90;;;;;;5006219;28;20469;-76
2023/10/31 11:55:11;;;;;;;5.30;3.00;;;15.20;99.90;;;;;;5003379;28;20480;-75
2023/10/31 11:57:40;;;;;;;3.90;2.83;;;15.40;99.90;;;;;;5001964;28;20181;-77
2023/10/31 12:00:10;;;;;;;5.67;2.70;;;15.60;99.90;;;;;;5000126;28;20444;-76
2023/10/31 12:02:35;;;;;;;9.47;3.00;;;15.70;99.90;;;;;;4991213;28;20432;-75
2023/10/31 12:05:12;;;;;;;4.60;2.80;;;16.30;99.90;;;;;;4986286;28;20468;-77
2023/10/31 12:07:47;;;;;;;5.10;3.10;;;16.40;99.90;;;;;;4987536;28;20182;-78
2023/10/31 12:10:22;;;;;;;7.37;2.90;;;16.30;99.90;;;;;;4994116;28;20463;-74
2023/10/31 12:12:47;;;;;;;4.53;2.60;;;16.20;99.90;;;;;;4994128;28;20847;-76
2023/10/31 12:15:13;;;;;;;3.50;2.37;;;16.10;99.90;;;;;;4994226;28;20439;-74
2023/10/31 12:17:39;;;;;;;5.27;2.33;;;15.80;99.90;;;;;;4991332;28;20197;-76
2023/10/31 12:20:07;;;;;;;4.87;2.60;;;15.80;99.90;;;;;;4994826;28;20194;-75
2023/10/31 12:22:33;;;;;;;3.60;2.00;;;15.50;99.90;;;;;;4986776;28;20177;-77
2023/10/31 12:25:06;;;;;;;3.60;1.87;;;15.30;99.90;;;;;;4996233;28;20452;-77
2023/10/31 12:27:49;;;;;;;6.43;2.17;;;15.10;99.90;;;;;;4990859;28;20432;-75
2023/10/31 12:30:18;;;;;;;4.50;2.50;;;15.00;99.90;;;;;;4991691;28;20463;-77
2023/10/31 12:32:44;;;;;;;4.53;2.17;;;14.80;99.90;;;;;;4987859;28;21811;-75
2023/10/31 12:35:18;;;;;;;5.43;2.80;;;14.70;99.90;;;;;;4997212;28;20436;-75
2023/10/31 12:37:49;;;;;;;4.47;2.20;;;15.30;99.90;;;;;;4989699;28;20423;-74
2023/10/31 12:40:17;;;;;;;6.23;2.60;;;16.20;99.90;;;;;;4991953;28;20513;-75
2023/10/31 12:42:44;;;;;;;4.20;2.00;;;16.50;99.90;;;;;;4989148;28;20438;-79